sensor_id;sensor_type;location;lat;lon;timestamp;P1;durP1;ratioP1;P2;durP2;ratioP2
44532;SDS011;48673;53.016;-2.258;2022-07-30T00:01:22;7.03;;;2.85;;
44532;SDS011;48673;53.016;-2.258;2022-07-30T00:03:50;8.82;;;3.63;;
44532;SDS011;48673;53.016;-2.258;2022-07-30T00:06:17;9.32;;;2.78;;
44532;SDS011;48673;53.016;-2.258;2022-07-30T00:08:45;6.85;;;3.53;;
44532;SDS011;48673;53.016;-2.258;2022-07-30T00:11:13;6.97;;;2.67;;
44532;SDS011;48673;53.016;-2.258;2022-07-30T00:13:41;9.25;;;3.22;;
44532;SDS011;48673;53.016;-2.258;2022-07-30T00:16:09;7.68;;;3.30;;
44532;SDS011;48673;53.016;-2.258;2022-07-30T00:18:37;7.30;;;2.90;;
44532;SDS011;48673;53.016;-2.258;2022-07-30T00:21:08;14.38;;;3.10;;
44532;SDS011;48673;53.016;-2.258;2022-07-30T00:23:45;5.97;;;2.55;;
44532;SDS011;48673;53.016;-2.258;2022-07-30T00:26:28;9.65;;;2.97;;
44532;SDS011;48673;53.016;-2.258;2022-07-30T00:28:56;9.60;;;3.80;;
44532;SDS011;48673;53.016;-2.258;2022-07-30T00:31:23;6.70;;;4.10;;
44532;SDS011;48673;53.016;-2.258;2022-07-30T00:33:51;8.48;;;4.60;;
44532;SDS011;48673;53.016;-2.258;2022-07-30T00:36:19;9.93;;;4.43;;
44532;SDS011;48673;53.016;-2.258;2022-07-30T00:38:48;12.55;;;5.43;;
44532;SDS011;48673;53.016;-2.258;2022-07-30T00:41:15;8.30;;;5.28;;
44532;SDS011;48673;53.016;-2.258;2022-07-30T00:43:43;9.65;;;4.90;;
44532;SDS011;48673;53.016;-2.258;2022-07-30T00:48:41;14.45;;;6.28;;
44532;SDS011;48673;53.016;-2.258;2022-07-30T00:51:09;9.63;;;6.53;;
44532;SDS011;48673;53.016;-2.258;2022-07-30T00:56:07;14.38;;;7.57;;
44532;SDS011;48673;53.016;-2.258;2022-07-30T00:58:34;10.38;;;7.47;;
44532;SDS011;48673;53.016;-2.258;2022-07-30T01:01:02;14.50;;;7.30;;
44532;SDS011;48673;53.016;-2.258;2022-07-30T01:03:30;11.27;;;6.55;;
44532;SDS011;48673;53.016;-2.258;2022-07-30T01:05:58;9.40;;;6.63;;
44532;SDS011;48673;53.016;-2.258;2022-07-30T01:08:25;15.25;;;6.30;;
44532;SDS011;48673;53.016;-2.258;2022-07-30T01:10:53;8.93;;;6.18;;
44532;SDS011;48673;53.016;-2.258;2022-07-30T01:13:21;11.50;;;5.88;;
44532;SDS011;48673;53.016;-2.258;2022-07-30T01:15:49;7.60;;;5.32;;
44532;SDS011;48673;53.016;-2.258;2022-07-30T01:18:17;9.73;;;6.07;;
44532;SDS011;48673;53.016;-2.258;2022-07-30T01:23:34;14.50;;;6.78;;
44532;SDS011;48673;53.016;-2.258;2022-07-30T01:26:16;11.60;;;5.60;;
44532;SDS011;48673;53.016;-2.258;2022-07-30T01:28:48;8.43;;;4.95;;
44532;SDS011;48673;53.016;-2.258;2022-07-30T01:31:20;9.50;;;5.13;;
44532;SDS011;48673;53.016;-2.258;2022-07-30T01:33:51;8.25;;;5.55;;
44532;SDS011;48673;53.016;-2.258;2022-07-30T01:36:20;7.28;;;4.88;;
44532;SDS011;48673;53.016;-2.258;2022-07-30T01:38:49;10.27;;;5.20;;
44532;SDS011;48673;53.016;-2.258;2022-07-30T01:41:18;4.85;;;4.38;;
44532;SDS011;48673;53.016;-2.258;2022-07-30T01:43:47;4.68;;;3.92;;
44532;SDS011;48673;53.016;-2.258;2022-07-30T01:46:15;5.85;;;3.35;;
44532;SDS011;48673;53.016;-2.258;2022-07-30T01:48:46;9.23;;;3.67;;
44532;SDS011;48673;53.016;-2.258;2022-07-30T01:53:46;5.28;;;3.85;;
44532;SDS011;48673;53.016;-2.258;2022-07-30T01:56:20;5.72;;;3.50;;
44532;SDS011;48673;53.016;-2.258;2022-07-30T01:58:52;5.13;;;3.90;;
44532;SDS011;48673;53.016;-2.258;2022-07-30T02:01:24;4.97;;;3.85;;
44532;SDS011;48673;53.016;-2.258;2022-07-30T02:03:58;6.40;;;3.95;;
44532;SDS011;48673;53.016;-2.258;2022-07-30T02:06:33;5.03;;;3.22;;
44532;SDS011;48673;53.016;-2.258;2022-07-30T02:09:08;7.10;;;2.90;;
44532;SDS011;48673;53.016;-2.258;2022-07-30T02:11:40;5.07;;;2.85;;
44532;SDS011;48673;53.016;-2.258;2022-07-30T02:14:33;5.00;;;2.28;;
44532;SDS011;48673;53.016;-2.258;2022-07-30T02:17:14;3.45;;;2.85;;
44532;SDS011;48673;53.016;-2.258;2022-07-30T02:19:55;4.45;;;2.58;;
44532;SDS011;48673;53.016;-2.258;2022-07-30T02:22:27;5.75;;;2.28;;
44532;SDS011;48673;53.016;-2.258;2022-07-30T02:24:59;4.70;;;1.85;;
44532;SDS011;48673;53.016;-2.258;2022-07-30T02:27:30;6.75;;;1.92;;
44532;SDS011;48673;53.016;-2.258;2022-07-30T02:30:04;4.30;;;1.80;;
44532;SDS011;48673;53.016;-2.258;2022-07-30T02:35:11;5.07;;;2.00;;
44532;SDS011;48673;53.016;-2.258;2022-07-30T02:37:44;5.75;;;1.88;;
44532;SDS011;48673;53.016;-2.258;2022-07-30T02:40:15;2.05;;;1.20;;
44532;SDS011;48673;53.016;-2.258;2022-07-30T02:42:47;4.82;;;2.50;;
44532;SDS011;48673;53.016;-2.258;2022-07-30T02:45:20;4.38;;;1.65;;
44532;SDS011;48673;53.016;-2.258;2022-07-30T02:47:51;5.47;;;1.75;;
44532;SDS011;48673;53.016;-2.258;2022-07-30T02:50:22;2.05;;;1.08;;
44532;SDS011;48673;53.016;-2.258;2022-07-30T02:52:53;4.07;;;1.40;;
44532;SDS011;48673;53.016;-2.258;2022-07-30T02:55:24;2.95;;;1.45;;
44532;SDS011;48673;53.016;-2.258;2022-07-30T02:57:54;2.15;;;1.20;;
44532;SDS011;48673;53.016;-2.258;2022-07-30T03:02:51;1.77;;;1.10;;
44532;SDS011;48673;53.016;-2.258;2022-07-30T03:05:23;1.83;;;1.02;;
44532;SDS011;48673;53.016;-2.258;2022-07-30T03:07:53;4.38;;;1.02;;
44532;SDS011;48673;53.016;-2.258;2022-07-30T03:10:26;1.98;;;1.02;;
44532;SDS011;48673;53.016;-2.258;2022-07-30T03:12:55;1.60;;;1.13;;
44532;SDS011;48673;53.016;-2.258;2022-07-30T03:15:26;6.20;;;1.38;;
44532;SDS011;48673;53.016;-2.258;2022-07-30T03:17:56;2.65;;;1.10;;
44532;SDS011;48673;53.016;-2.258;2022-07-30T03:20:27;2.50;;;1.40;;
44532;SDS011;48673;53.016;-2.258;2022-07-30T03:22:58;3.55;;;1.65;;
44532;SDS011;48673;53.016;-2.258;2022-07-30T03:25:28;4.65;;;1.90;;
44532;SDS011;48673;53.016;-2.258;2022-07-30T03:28:00;2.88;;;1.55;;
44532;SDS011;48673;53.016;-2.258;2022-07-30T03:30:32;3.90;;;1.50;;
44532;SDS011;48673;53.016;-2.258;2022-07-30T03:33:01;8.90;;;1.70;;
44532;SDS011;48673;53.016;-2.258;2022-07-30T03:35:29;5.47;;;1.73;;
44532;SDS011;48673;53.016;-2.258;2022-07-30T03:37:58;5.05;;;1.80;;
44532;SDS011;48673;53.016;-2.258;2022-07-30T03:40:27;2.95;;;1.77;;
44532;SDS011;48673;53.016;-2.258;2022-07-30T03:42:56;2.95;;;2.25;;
44532;SDS011;48673;53.016;-2.258;2022-07-30T03:45:24;6.20;;;2.38;;
44532;SDS011;48673;53.016;-2.258;2022-07-30T03:48:00;6.40;;;2.80;;
44532;SDS011;48673;53.016;-2.258;2022-07-30T03:50:31;3.88;;;3.10;;
44532;SDS011;48673;53.016;-2.258;2022-07-30T03:53:04;4.22;;;3.22;;
44532;SDS011;48673;53.016;-2.258;2022-07-30T03:55:41;8.07;;;2.90;;
44532;SDS011;48673;53.016;-2.258;2022-07-30T03:58:45;8.30;;;4.60;;
44532;SDS011;48673;53.016;-2.258;2022-07-30T04:01:13;6.88;;;3.40;;
44532;SDS011;48673;53.016;-2.258;2022-07-30T04:03:42;7.95;;;3.45;;
44532;SDS011;48673;53.016;-2.258;2022-07-30T04:06:11;4.13;;;3.08;;
44532;SDS011;48673;53.016;-2.258;2022-07-30T04:08:39;7.90;;;3.15;;
44532;SDS011;48673;53.016;-2.258;2022-07-30T04:11:07;5.30;;;3.00;;
44532;SDS011;48673;53.016;-2.258;2022-07-30T04:13:53;6.20;;;2.90;;
44532;SDS011;48673;53.016;-2.258;2022-07-30T04:16:27;3.72;;;2.88;;
44532;SDS011;48673;53.016;-2.258;2022-07-30T04:19:22;8.98;;;3.58;;
44532;SDS011;48673;53.016;-2.258;2022-07-30T04:22:04;6.53;;;2.58;;
44532;SDS011;48673;53.016;-2.258;2022-07-30T04:24:36;6.68;;;2.30;;
44532;SDS011;48673;53.016;-2.258;2022-07-30T04:27:06;3.72;;;2.85;;
44532;SDS011;48673;53.016;-2.258;2022-07-30T04:29:34;6.53;;;2.95;;
44532;SDS011;48673;53.016;-2.258;2022-07-30T04:32:03;7.13;;;3.15;;
44532;SDS011;48673;53.016;-2.258;2022-07-30T04:34:34;3.58;;;2.67;;
44532;SDS011;48673;53.016;-2.258;2022-07-30T04:37:05;5.32;;;2.72;;
44532;SDS011;48673;53.016;-2.258;2022-07-30T04:39:35;7.55;;;2.58;;
44532;SDS011;48673;53.016;-2.258;2022-07-30T04:42:03;5.65;;;3.35;;
44532;SDS011;48673;53.016;-2.258;2022-07-30T04:44:30;3.72;;;2.33;;
44532;SDS011;48673;53.016;-2.258;2022-07-30T04:47:17;5.28;;;2.88;;
44532;SDS011;48673;53.016;-2.258;2022-07-30T04:49:58;8.43;;;3.97;;
44532;SDS011;48673;53.016;-2.258;2022-07-30T04:52:26;5.45;;;3.63;;
44532;SDS011;48673;53.016;-2.258;2022-07-30T04:54:57;6.53;;;2.95;;
44532;SDS011;48673;53.016;-2.258;2022-07-30T04:57:30;5.53;;;3.45;;
44532;SDS011;48673;53.016;-2.258;2022-07-30T05:00:00;12.90;;;3.70;;
44532;SDS011;48673;53.016;-2.258;2022-07-30T05:02:29;7.57;;;3.60;;
44532;SDS011;48673;53.016;-2.258;2022-07-30T05:04:59;6.72;;;3.78;;
44532;SDS011;48673;53.016;-2.258;2022-07-30T05:07:29;5.93;;;3.72;;
44532;SDS011;48673;53.016;-2.258;2022-07-30T05:09:59;6.35;;;3.13;;
44532;SDS011;48673;53.016;-2.258;2022-07-30T05:12:32;4.93;;;2.83;;
44532;SDS011;48673;53.016;-2.258;2022-07-30T05:15:04;7.00;;;3.42;;
44532;SDS011;48673;53.016;-2.258;2022-07-30T05:17:34;7.82;;;3.78;;
44532;SDS011;48673;53.016;-2.258;2022-07-30T05:20:05;7.53;;;3.63;;
44532;SDS011;48673;53.016;-2.258;2022-07-30T05:22:52;8.45;;;3.45;;
44532;SDS011;48673;53.016;-2.258;2022-07-30T05:27:50;8.52;;;3.65;;
44532;SDS011;48673;53.016;-2.258;2022-07-30T05:30:18;4.50;;;3.38;;
44532;SDS011;48673;53.016;-2.258;2022-07-30T05:32:55;6.47;;;3.30;;
44532;SDS011;48673;53.016;-2.258;2022-07-30T05:37:52;4.00;;;2.65;;
44532;SDS011;48673;53.016;-2.258;2022-07-30T05:40:20;7.47;;;3.33;;
44532;SDS011;48673;53.016;-2.258;2022-07-30T05:43:06;4.63;;;3.10;;
44532;SDS011;48673;53.016;-2.258;2022-07-30T05:45:36;5.25;;;2.90;;
44532;SDS011;48673;53.016;-2.258;2022-07-30T05:48:04;3.95;;;3.10;;
44532;SDS011;48673;53.016;-2.258;2022-07-30T05:50:33;4.95;;;2.80;;
44532;SDS011;48673;53.016;-2.258;2022-07-30T05:53:01;6.90;;;3.58;;
44532;SDS011;48673;53.016;-2.258;2022-07-30T05:55:48;4.33;;;2.47;;
44532;SDS011;48673;53.016;-2.258;2022-07-30T05:58:36;5.25;;;2.65;;
44532;SDS011;48673;53.016;-2.258;2022-07-30T06:01:04;5.32;;;2.50;;
44532;SDS011;48673;53.016;-2.258;2022-07-30T06:03:32;8.27;;;3.40;;
44532;SDS011;48673;53.016;-2.258;2022-07-30T06:06:20;4.63;;;2.70;;
44532;SDS011;48673;53.016;-2.258;2022-07-30T06:08:50;6.20;;;3.10;;
44532;SDS011;48673;53.016;-2.258;2022-07-30T06:11:18;8.25;;;3.10;;
44532;SDS011;48673;53.016;-2.258;2022-07-30T06:13:46;4.53;;;2.80;;
44532;SDS011;48673;53.016;-2.258;2022-07-30T06:16:14;5.28;;;3.00;;
44532;SDS011;48673;53.016;-2.258;2022-07-30T06:18:42;7.97;;;4.22;;
44532;SDS011;48673;53.016;-2.258;2022-07-30T06:21:19;5.28;;;3.10;;
44532;SDS011;48673;53.016;-2.258;2022-07-30T06:24:07;7.43;;;3.63;;
44532;SDS011;48673;53.016;-2.258;2022-07-30T06:26:43;4.10;;;2.85;;
44532;SDS011;48673;53.016;-2.258;2022-07-30T06:29:11;3.92;;;3.33;;
44532;SDS011;48673;53.016;-2.258;2022-07-30T06:34:10;5.47;;;2.90;;
44532;SDS011;48673;53.016;-2.258;2022-07-30T06:36:41;8.25;;;3.72;;
44532;SDS011;48673;53.016;-2.258;2022-07-30T06:39:16;9.82;;;3.75;;
44532;SDS011;48673;53.016;-2.258;2022-07-30T06:42:19;4.53;;;3.05;;
44532;SDS011;48673;53.016;-2.258;2022-07-30T06:45:06;6.45;;;3.53;;
44532;SDS011;48673;53.016;-2.258;2022-07-30T06:47:55;5.63;;;3.53;;
44532;SDS011;48673;53.016;-2.258;2022-07-30T06:50:26;6.57;;;3.95;;
44532;SDS011;48673;53.016;-2.258;2022-07-30T06:52:54;8.20;;;3.63;;
44532;SDS011;48673;53.016;-2.258;2022-07-30T06:55:24;6.38;;;3.65;;
44532;SDS011;48673;53.016;-2.258;2022-07-30T06:57:56;8.00;;;4.22;;
44532;SDS011;48673;53.016;-2.258;2022-07-30T07:00:50;6.35;;;3.28;;
44532;SDS011;48673;53.016;-2.258;2022-07-30T07:03:18;5.77;;;3.90;;
44532;SDS011;48673;53.016;-2.258;2022-07-30T07:05:46;6.07;;;3.47;;
44532;SDS011;48673;53.016;-2.258;2022-07-30T07:08:14;4.90;;;4.40;;
44532;SDS011;48673;53.016;-2.258;2022-07-30T07:10:48;5.53;;;3.88;;
44532;SDS011;48673;53.016;-2.258;2022-07-30T07:13:27;6.97;;;3.60;;
44532;SDS011;48673;53.016;-2.258;2022-07-30T07:15:57;4.75;;;3.58;;
44532;SDS011;48673;53.016;-2.258;2022-07-30T07:18:27;5.05;;;3.53;;
44532;SDS011;48673;53.016;-2.258;2022-07-30T07:21:00;9.45;;;3.78;;
44532;SDS011;48673;53.016;-2.258;2022-07-30T07:23:28;6.13;;;4.20;;
44532;SDS011;48673;53.016;-2.258;2022-07-30T07:26:29;5.45;;;3.50;;
44532;SDS011;48673;53.016;-2.258;2022-07-30T07:28:57;4.47;;;3.78;;
44532;SDS011;48673;53.016;-2.258;2022-07-30T07:31:31;5.45;;;3.63;;
44532;SDS011;48673;53.016;-2.258;2022-07-30T07:34:19;10.23;;;3.93;;
44532;SDS011;48673;53.016;-2.258;2022-07-30T07:36:47;8.55;;;3.47;;
44532;SDS011;48673;53.016;-2.258;2022-07-30T07:39:16;6.30;;;3.65;;
44532;SDS011;48673;53.016;-2.258;2022-07-30T07:41:43;3.55;;;3.05;;
44532;SDS011;48673;53.016;-2.258;2022-07-30T07:44:16;6.60;;;3.00;;
44532;SDS011;48673;53.016;-2.258;2022-07-30T07:46:44;5.03;;;2.88;;
44532;SDS011;48673;53.016;-2.258;2022-07-30T07:49:12;5.70;;;3.40;;
44532;SDS011;48673;53.016;-2.258;2022-07-30T07:51:50;6.05;;;3.75;;
44532;SDS011;48673;53.016;-2.258;2022-07-30T07:56:50;7.50;;;2.47;;
44532;SDS011;48673;53.016;-2.258;2022-07-30T07:59:25;4.65;;;2.33;;
44532;SDS011;48673;53.016;-2.258;2022-07-30T08:02:12;6.30;;;2.60;;
44532;SDS011;48673;53.016;-2.258;2022-07-30T08:04:57;4.15;;;2.40;;
44532;SDS011;48673;53.016;-2.258;2022-07-30T08:07:43;4.88;;;2.55;;
44532;SDS011;48673;53.016;-2.258;2022-07-30T08:10:30;3.55;;;2.20;;
44532;SDS011;48673;53.016;-2.258;2022-07-30T08:13:16;4.05;;;2.20;;
44532;SDS011;48673;53.016;-2.258;2022-07-30T08:16:23;4.65;;;2.20;;
44532;SDS011;48673;53.016;-2.258;2022-07-30T08:19:14;6.35;;;2.10;;
44532;SDS011;48673;53.016;-2.258;2022-07-30T08:21:56;1.85;;;1.38;;
44532;SDS011;48673;53.016;-2.258;2022-07-30T08:24:29;2.47;;;2.20;;
44532;SDS011;48673;53.016;-2.258;2022-07-30T08:26:58;2.38;;;1.83;;
44532;SDS011;48673;53.016;-2.258;2022-07-30T08:29:26;3.53;;;1.88;;
44532;SDS011;48673;53.016;-2.258;2022-07-30T08:31:54;3.35;;;1.77;;
44532;SDS011;48673;53.016;-2.258;2022-07-30T08:34:24;3.97;;;1.33;;
44532;SDS011;48673;53.016;-2.258;2022-07-30T08:36:54;2.70;;;1.40;;
44532;SDS011;48673;53.016;-2.258;2022-07-30T08:39:23;2.80;;;1.50;;
44532;SDS011;48673;53.016;-2.258;2022-07-30T08:46:50;2.72;;;1.17;;
44532;SDS011;48673;53.016;-2.258;2022-07-30T08:50:01;1.85;;;1.25;;
44532;SDS011;48673;53.016;-2.258;2022-07-30T08:52:40;1.33;;;1.00;;
44532;SDS011;48673;53.016;-2.258;2022-07-30T08:55:09;1.67;;;1.15;;
44532;SDS011;48673;53.016;-2.258;2022-07-30T08:57:39;2.50;;;1.17;;
44532;SDS011;48673;53.016;-2.258;2022-07-30T09:00:07;2.15;;;1.42;;
44532;SDS011;48673;53.016;-2.258;2022-07-30T09:02:35;1.63;;;0.90;;
44532;SDS011;48673;53.016;-2.258;2022-07-30T09:05:04;1.77;;;1.00;;
44532;SDS011;48673;53.016;-2.258;2022-07-30T09:07:33;1.65;;;1.20;;
44532;SDS011;48673;53.016;-2.258;2022-07-30T09:10:03;1.48;;;1.17;;
44532;SDS011;48673;53.016;-2.258;2022-07-30T09:15:03;4.72;;;1.52;;
44532;SDS011;48673;53.016;-2.258;2022-07-30T09:20:18;2.53;;;1.58;;
44532;SDS011;48673;53.016;-2.258;2022-07-30T09:22:48;4.85;;;1.40;;
44532;SDS011;48673;53.016;-2.258;2022-07-30T09:28:29;3.03;;;1.42;;
44532;SDS011;48673;53.016;-2.258;2022-07-30T09:31:15;7.30;;;1.38;;
44532;SDS011;48673;53.016;-2.258;2022-07-30T09:34:03;3.13;;;1.45;;
44532;SDS011;48673;53.016;-2.258;2022-07-30T09:37:06;2.17;;;1.00;;
44532;SDS011;48673;53.016;-2.258;2022-07-30T09:40:09;3.13;;;1.20;;
44532;SDS011;48673;53.016;-2.258;2022-07-30T09:43:07;2.90;;;1.40;;
44532;SDS011;48673;53.016;-2.258;2022-07-30T09:45:49;2.42;;;1.52;;
44532;SDS011;48673;53.016;-2.258;2022-07-30T09:48:25;2.05;;;1.08;;
44532;SDS011;48673;53.016;-2.258;2022-07-30T09:50:54;1.85;;;1.05;;
44532;SDS011;48673;53.016;-2.258;2022-07-30T09:53:23;3.97;;;1.20;;
44532;SDS011;48673;53.016;-2.258;2022-07-30T09:55:52;1.50;;;1.00;;
44532;SDS011;48673;53.016;-2.258;2022-07-30T09:58:20;1.90;;;0.93;;
44532;SDS011;48673;53.016;-2.258;2022-07-30T10:00:55;0.90;;;0.65;;
44532;SDS011;48673;53.016;-2.258;2022-07-30T10:03:44;0.98;;;0.80;;
44532;SDS011;48673;53.016;-2.258;2022-07-30T10:06:49;0.50;;;0.40;;
44532;SDS011;48673;53.016;-2.258;2022-07-30T10:09:33;0.38;;;0.20;;
44532;SDS011;48673;53.016;-2.258;2022-07-30T10:12:05;0.52;;;0.20;;
44532;SDS011;48673;53.016;-2.258;2022-07-30T10:14:41;0.17;;;0.10;;
44532;SDS011;48673;53.016;-2.258;2022-07-30T10:17:14;0.98;;;0.28;;
44532;SDS011;48673;53.016;-2.258;2022-07-30T10:20:05;2.35;;;0.30;;
44532;SDS011;48673;53.016;-2.258;2022-07-30T10:23:01;0.68;;;0.15;;
44532;SDS011;48673;53.016;-2.258;2022-07-30T10:25:36;0.22;;;0.13;;
44532;SDS011;48673;53.016;-2.258;2022-07-30T10:28:39;0.13;;;0.10;;
44532;SDS011;48673;53.016;-2.258;2022-07-30T10:31:09;0.10;;;0.10;;
44532;SDS011;48673;53.016;-2.258;2022-07-30T10:33:59;0.35;;;0.17;;
44532;SDS011;48673;53.016;-2.258;2022-07-30T10:36:27;0.32;;;0.10;;
44532;SDS011;48673;53.016;-2.258;2022-07-30T10:38:58;0.20;;;0.20;;
44532;SDS011;48673;53.016;-2.258;2022-07-30T10:44:23;0.55;;;0.20;;
44532;SDS011;48673;53.016;-2.258;2022-07-30T10:47:07;0.10;;;0.10;;
44532;SDS011;48673;53.016;-2.258;2022-07-30T10:49:38;1.83;;;0.17;;
44532;SDS011;48673;53.016;-2.258;2022-07-30T10:52:09;0.38;;;0.20;;
44532;SDS011;48673;53.016;-2.258;2022-07-30T11:02:27;0.38;;;0.20;;
44532;SDS011;48673;53.016;-2.258;2022-07-30T11:07:53;0.75;;;0.68;;
44532;SDS011;48673;53.016;-2.258;2022-07-30T11:10:55;0.85;;;0.30;;
44532;SDS011;48673;53.016;-2.258;2022-07-30T11:13:15;0.47;;;0.30;;
44532;SDS011;48673;53.016;-2.258;2022-07-30T11:15:51;0.22;;;0.22;;
44532;SDS011;48673;53.016;-2.258;2022-07-30T11:18:22;0.52;;;0.20;;
44532;SDS011;48673;53.016;-2.258;2022-07-30T11:23:42;1.23;;;0.57;;
44532;SDS011;48673;53.016;-2.258;2022-07-30T11:29:07;0.70;;;0.55;;
44532;SDS011;48673;53.016;-2.258;2022-07-30T11:32:23;1.00;;;0.40;;
44532;SDS011;48673;53.016;-2.258;2022-07-30T11:38:03;2.00;;;0.60;;
44532;SDS011;48673;53.016;-2.258;2022-07-30T11:43:19;0.95;;;0.50;;
44532;SDS011;48673;53.016;-2.258;2022-07-30T11:48:37;1.52;;;0.50;;
44532;SDS011;48673;53.016;-2.258;2022-07-30T11:51:08;1.63;;;0.60;;
44532;SDS011;48673;53.016;-2.258;2022-07-30T11:53:36;2.53;;;0.70;;
44532;SDS011;48673;53.016;-2.258;2022-07-30T11:56:04;2.40;;;0.70;;
44532;SDS011;48673;53.016;-2.258;2022-07-30T11:58:33;0.60;;;0.50;;
44532;SDS011;48673;53.016;-2.258;2022-07-30T12:01:04;0.75;;;0.47;;
44532;SDS011;48673;53.016;-2.258;2022-07-30T12:03:41;0.65;;;0.50;;
44532;SDS011;48673;53.016;-2.258;2022-07-30T12:06:14;0.77;;;0.55;;
44532;SDS011;48673;53.016;-2.258;2022-07-30T12:08:50;1.95;;;0.82;;
44532;SDS011;48673;53.016;-2.258;2022-07-30T12:11:30;0.57;;;0.40;;
44532;SDS011;48673;53.016;-2.258;2022-07-30T12:13:59;0.93;;;0.50;;
44532;SDS011;48673;53.016;-2.258;2022-07-30T12:16:28;4.00;;;0.50;;
44532;SDS011;48673;53.016;-2.258;2022-07-30T12:19:01;0.50;;;0.30;;
44532;SDS011;48673;53.016;-2.258;2022-07-30T12:21:30;1.50;;;0.40;;
44532;SDS011;48673;53.016;-2.258;2022-07-30T12:23:59;1.27;;;0.52;;
44532;SDS011;48673;53.016;-2.258;2022-07-30T12:26:29;0.77;;;0.50;;
44532;SDS011;48673;53.016;-2.258;2022-07-30T12:29:01;5.47;;;0.60;;
44532;SDS011;48673;53.016;-2.258;2022-07-30T12:31:31;0.60;;;0.50;;
44532;SDS011;48673;53.016;-2.258;2022-07-30T12:33:59;1.00;;;0.60;;
44532;SDS011;48673;53.016;-2.258;2022-07-30T12:36:31;1.58;;;0.75;;
44532;SDS011;48673;53.016;-2.258;2022-07-30T12:39:00;1.23;;;0.85;;
44532;SDS011;48673;53.016;-2.258;2022-07-30T12:41:42;1.00;;;0.73;;
44532;SDS011;48673;53.016;-2.258;2022-07-30T12:47:02;2.03;;;0.80;;
44532;SDS011;48673;53.016;-2.258;2022-07-30T12:49:32;1.98;;;1.10;;
44532;SDS011;48673;53.016;-2.258;2022-07-30T12:52:05;2.47;;;1.00;;
44532;SDS011;48673;53.016;-2.258;2022-07-30T12:54:39;2.70;;;1.08;;
44532;SDS011;48673;53.016;-2.258;2022-07-30T12:57:07;1.20;;;0.98;;
44532;SDS011;48673;53.016;-2.258;2022-07-30T12:59:35;1.05;;;0.82;;
44532;SDS011;48673;53.016;-2.258;2022-07-30T13:02:04;2.65;;;1.08;;
44532;SDS011;48673;53.016;-2.258;2022-07-30T13:04:32;2.40;;;1.02;;
44532;SDS011;48673;53.016;-2.258;2022-07-30T13:07:09;2.20;;;1.30;;
44532;SDS011;48673;53.016;-2.258;2022-07-30T13:09:38;1.48;;;1.00;;
44532;SDS011;48673;53.016;-2.258;2022-07-30T13:12:06;1.57;;;1.00;;
44532;SDS011;48673;53.016;-2.258;2022-07-30T13:14:37;2.25;;;1.02;;
44532;SDS011;48673;53.016;-2.258;2022-07-30T13:17:05;2.40;;;1.17;;
44532;SDS011;48673;53.016;-2.258;2022-07-30T13:19:36;1.13;;;0.73;;
44532;SDS011;48673;53.016;-2.258;2022-07-30T13:22:04;2.95;;;1.05;;
44532;SDS011;48673;53.016;-2.258;2022-07-30T13:24:32;1.40;;;0.82;;
44532;SDS011;48673;53.016;-2.258;2022-07-30T13:27:00;2.43;;;1.33;;
44532;SDS011;48673;53.016;-2.258;2022-07-30T13:29:28;1.73;;;1.00;;
44532;SDS011;48673;53.016;-2.258;2022-07-30T13:31:55;1.80;;;0.88;;
44532;SDS011;48673;53.016;-2.258;2022-07-30T13:34:23;1.58;;;0.90;;
44532;SDS011;48673;53.016;-2.258;2022-07-30T13:36:51;2.97;;;1.25;;
44532;SDS011;48673;53.016;-2.258;2022-07-30T13:39:19;2.35;;;1.55;;
44532;SDS011;48673;53.016;-2.258;2022-07-30T13:41:47;2.33;;;1.33;;
44532;SDS011;48673;53.016;-2.258;2022-07-30T13:44:14;3.30;;;1.40;;
44532;SDS011;48673;53.016;-2.258;2022-07-30T13:46:42;2.28;;;1.27;;
44532;SDS011;48673;53.016;-2.258;2022-07-30T13:49:10;1.92;;;1.05;;
44532;SDS011;48673;53.016;-2.258;2022-07-30T13:51:37;3.53;;;1.35;;
44532;SDS011;48673;53.016;-2.258;2022-07-30T13:54:05;3.03;;;1.60;;
44532;SDS011;48673;53.016;-2.258;2022-07-30T13:56:33;1.67;;;1.03;;
44532;SDS011;48673;53.016;-2.258;2022-07-30T13:59:07;2.28;;;1.67;;
44532;SDS011;48673;53.016;-2.258;2022-07-30T14:01:35;4.18;;;1.52;;
44532;SDS011;48673;53.016;-2.258;2022-07-30T14:04:04;2.75;;;1.63;;
44532;SDS011;48673;53.016;-2.258;2022-07-30T14:06:31;3.80;;;1.25;;
44532;SDS011;48673;53.016;-2.258;2022-07-30T14:08:59;2.40;;;1.10;;
44532;SDS011;48673;53.016;-2.258;2022-07-30T14:11:27;2.05;;;1.10;;
44532;SDS011;48673;53.016;-2.258;2022-07-30T14:13:55;3.65;;;1.40;;
44532;SDS011;48673;53.016;-2.258;2022-07-30T14:16:22;2.55;;;1.40;;
44532;SDS011;48673;53.016;-2.258;2022-07-30T14:19:10;2.13;;;1.40;;
44532;SDS011;48673;53.016;-2.258;2022-07-30T14:21:51;3.58;;;2.17;;
44532;SDS011;48673;53.016;-2.258;2022-07-30T14:24:20;2.20;;;1.20;;
44532;SDS011;48673;53.016;-2.258;2022-07-30T14:26:49;2.30;;;1.50;;
44532;SDS011;48673;53.016;-2.258;2022-07-30T14:29:24;5.35;;;1.50;;
44532;SDS011;48673;53.016;-2.258;2022-07-30T14:31:53;1.75;;;1.30;;
44532;SDS011;48673;53.016;-2.258;2022-07-30T14:34:21;4.43;;;1.30;;
44532;SDS011;48673;53.016;-2.258;2022-07-30T14:36:49;1.63;;;1.25;;
44532;SDS011;48673;53.016;-2.258;2022-07-30T14:39:17;5.22;;;1.10;;
44532;SDS011;48673;53.016;-2.258;2022-07-30T14:41:45;2.53;;;1.27;;
44532;SDS011;48673;53.016;-2.258;2022-07-30T14:44:12;1.75;;;1.48;;
44532;SDS011;48673;53.016;-2.258;2022-07-30T14:46:42;1.73;;;1.52;;
44532;SDS011;48673;53.016;-2.258;2022-07-30T14:49:19;1.85;;;1.27;;
44532;SDS011;48673;53.016;-2.258;2022-07-30T14:51:49;1.60;;;1.33;;
44532;SDS011;48673;53.016;-2.258;2022-07-30T14:54:17;3.53;;;1.73;;
44532;SDS011;48673;53.016;-2.258;2022-07-30T14:56:45;4.53;;;1.93;;
44532;SDS011;48673;53.016;-2.258;2022-07-30T14:59:13;4.05;;;2.15;;
44532;SDS011;48673;53.016;-2.258;2022-07-30T15:01:42;6.43;;;1.73;;
44532;SDS011;48673;53.016;-2.258;2022-07-30T15:04:09;4.43;;;1.55;;
44532;SDS011;48673;53.016;-2.258;2022-07-30T15:06:38;2.47;;;1.98;;
44532;SDS011;48673;53.016;-2.258;2022-07-30T15:09:09;2.42;;;1.95;;
44532;SDS011;48673;53.016;-2.258;2022-07-30T15:11:36;5.05;;;1.70;;
44532;SDS011;48673;53.016;-2.258;2022-07-30T15:14:25;3.20;;;2.08;;
44532;SDS011;48673;53.016;-2.258;2022-07-30T15:16:54;2.70;;;1.35;;
44532;SDS011;48673;53.016;-2.258;2022-07-30T15:19:30;2.38;;;1.33;;
44532;SDS011;48673;53.016;-2.258;2022-07-30T15:24:29;3.03;;;1.55;;
44532;SDS011;48673;53.016;-2.258;2022-07-30T15:26:57;4.28;;;1.65;;
44532;SDS011;48673;53.016;-2.258;2022-07-30T15:29:25;3.40;;;1.48;;
44532;SDS011;48673;53.016;-2.258;2022-07-30T15:31:55;3.42;;;1.25;;
44532;SDS011;48673;53.016;-2.258;2022-07-30T15:34:26;3.08;;;1.83;;
44532;SDS011;48673;53.016;-2.258;2022-07-30T15:36:54;1.83;;;1.63;;
44532;SDS011;48673;53.016;-2.258;2022-07-30T15:39:22;6.32;;;1.70;;
44532;SDS011;48673;53.016;-2.258;2022-07-30T15:41:54;1.75;;;1.08;;
44532;SDS011;48673;53.016;-2.258;2022-07-30T15:44:23;6.70;;;1.67;;
44532;SDS011;48673;53.016;-2.258;2022-07-30T15:46:51;1.85;;;1.48;;
44532;SDS011;48673;53.016;-2.258;2022-07-30T15:49:19;2.30;;;1.70;;
44532;SDS011;48673;53.016;-2.258;2022-07-30T15:51:47;4.00;;;1.70;;
44532;SDS011;48673;53.016;-2.258;2022-07-30T15:54:15;2.63;;;1.70;;
44532;SDS011;48673;53.016;-2.258;2022-07-30T15:56:49;4.78;;;2.15;;
44532;SDS011;48673;53.016;-2.258;2022-07-30T16:04:14;3.03;;;2.08;;
44532;SDS011;48673;53.016;-2.258;2022-07-30T16:06:46;2.80;;;2.10;;
44532;SDS011;48673;53.016;-2.258;2022-07-30T16:09:15;3.22;;;2.40;;
44532;SDS011;48673;53.016;-2.258;2022-07-30T16:11:42;3.28;;;2.80;;
44532;SDS011;48673;53.016;-2.258;2022-07-30T16:14:12;4.90;;;2.08;;
44532;SDS011;48673;53.016;-2.258;2022-07-30T16:16:40;3.75;;;1.98;;
44532;SDS011;48673;53.016;-2.258;2022-07-30T16:19:08;5.90;;;2.85;;
44532;SDS011;48673;53.016;-2.258;2022-07-30T16:21:36;4.22;;;2.45;;
44532;SDS011;48673;53.016;-2.258;2022-07-30T16:24:04;3.50;;;2.13;;